createdAt,value
2022-10-12T00:00:38.271Z,15.50
2022-10-12T00:03:05.179Z,12.20
2022-10-12T00:05:32.297Z,14.07
2022-10-12T00:07:59.368Z,11.65
2022-10-12T00:10:26.679Z,16.10
2022-10-12T00:12:53.967Z,10.20
2022-10-12T00:15:21.227Z,14.63
2022-10-12T00:17:48.598Z,14.52
2022-10-12T00:20:16.222Z,11.63
2022-10-12T00:22:43.234Z,14.55
2022-10-12T00:25:10.339Z,13.38
2022-10-12T00:27:37.519Z,12.05
2022-10-12T00:30:05.324Z,12.88
2022-10-12T00:32:32.272Z,18.90
2022-10-12T00:34:59.257Z,14.77
2022-10-12T00:37:26.147Z,15.00
2022-10-12T00:39:53.117Z,14.98
2022-10-12T00:42:21.153Z,16.15
2022-10-12T00:44:50.069Z,12.60
2022-10-12T00:47:23.555Z,14.73
2022-10-12T00:50:13.461Z,21.88
2022-10-12T00:52:50.467Z,18.90
2022-10-12T00:55:20.176Z,15.52
2022-10-12T00:57:49.766Z,21.20
2022-10-12T01:00:17.540Z,17.65
2022-10-12T01:02:47.249Z,16.30
2022-10-12T01:05:14.925Z,20.10
2022-10-12T01:07:42.131Z,15.52
2022-10-12T01:10:10.304Z,15.10
2022-10-12T01:12:40.032Z,16.00
2022-10-12T01:15:07.787Z,17.00
2022-10-12T01:17:46.258Z,13.75
2022-10-12T01:20:58.306Z,11.13
2022-10-12T01:23:44.005Z,17.90
2022-10-12T01:26:39.224Z,13.52
2022-10-12T01:29:12.225Z,14.85
2022-10-12T01:31:53.280Z,14.63
2022-10-12T01:34:54.200Z,16.25
2022-10-12T01:37:37.053Z,15.30
2022-10-12T01:40:12.321Z,10.80
2022-10-12T01:42:42.092Z,13.50
2022-10-12T01:45:16.365Z,13.95
2022-10-12T01:47:48.690Z,18.50
2022-10-12T01:53:24.827Z,12.82
2022-10-12T01:56:06.975Z,13.82
2022-10-12T01:58:51.555Z,11.93
2022-10-12T02:01:42.831Z,19.20
2022-10-12T02:08:00.058Z,12.55
2022-10-12T02:10:38.199Z,14.57
2022-10-12T02:13:09.766Z,12.95
2022-10-12T02:15:38.818Z,12.43
2022-10-12T02:18:07.130Z,12.45
2022-10-12T02:20:36.134Z,16.33
2022-10-12T02:23:03.925Z,19.30
2022-10-12T02:25:33.652Z,12.00
2022-10-12T02:28:10.819Z,11.70
2022-10-12T02:30:48.138Z,13.60
2022-10-12T02:33:42.885Z,14.80
2022-10-12T02:36:15.275Z,12.57
2022-10-12T02:38:55.223Z,14.35
2022-10-12T02:41:29.909Z,11.13
2022-10-12T02:44:01.678Z,15.10
2022-10-12T02:46:30.582Z,15.07
2022-10-12T02:48:59.579Z,12.57
2022-10-12T02:51:31.435Z,17.48
2022-10-12T02:53:58.718Z,12.82
2022-10-12T02:56:25.818Z,12.15
2022-10-12T02:58:52.916Z,13.98
2022-10-12T03:01:19.862Z,15.80
2022-10-12T03:03:47.300Z,14.30
2022-10-12T03:06:15.904Z,17.30
2022-10-12T03:08:43.127Z,18.10
2022-10-12T03:11:13.131Z,14.88
2022-10-12T03:13:46.440Z,12.75
2022-10-12T03:16:13.366Z,11.50
2022-10-12T03:18:40.710Z,11.57
2022-10-12T03:21:07.745Z,11.93
2022-10-12T03:23:34.562Z,14.40
2022-10-12T03:26:01.540Z,12.13
2022-10-12T03:28:28.531Z,12.35
2022-10-12T03:30:55.709Z,14.32
2022-10-12T03:33:24.224Z,10.57
2022-10-12T03:35:51.901Z,20.27
2022-10-12T03:38:20.174Z,12.60
2022-10-12T03:40:47.433Z,11.55
2022-10-12T03:43:14.705Z,15.52
2022-10-12T03:45:41.649Z,16.30
2022-10-12T03:48:09.219Z,19.98
2022-10-12T03:50:36.746Z,13.57
2022-10-12T03:53:05.478Z,13.85
2022-10-12T03:55:32.908Z,18.52
2022-10-12T03:57:59.953Z,16.80
2022-10-12T04:00:28.391Z,12.63
2022-10-12T04:02:55.699Z,14.10
2022-10-12T04:05:23.732Z,20.25
2022-10-12T04:07:51.152Z,13.65
2022-10-12T04:10:18.444Z,13.18
2022-10-12T04:12:46.510Z,16.80
2022-10-12T04:15:14.747Z,17.85
2022-10-12T04:17:42.091Z,17.92
2022-10-12T04:20:11.274Z,29.42
2022-10-12T04:22:38.766Z,17.73
2022-10-12T04:25:06.454Z,19.38
2022-10-12T04:27:33.589Z,19.98
2022-10-12T04:30:00.617Z,12.57
2022-10-12T04:32:27.499Z,17.60
2022-10-12T04:34:54.465Z,18.95
2022-10-12T04:37:21.336Z,13.63
2022-10-12T04:39:48.266Z,22.10
2022-10-12T04:42:15.182Z,20.88
2022-10-12T04:44:42.253Z,16.67
2022-10-12T04:47:09.288Z,22.05
2022-10-12T04:49:36.725Z,16.40
2022-10-12T04:52:03.980Z,13.57
2022-10-12T04:54:33.077Z,14.18
2022-10-12T04:57:00.120Z,17.20
2022-10-12T04:59:27.667Z,20.77
2022-10-12T05:01:55.074Z,17.42
2022-10-12T05:04:22.218Z,15.95
2022-10-12T05:06:49.258Z,22.02
2022-10-12T05:09:17.225Z,14.63
2022-10-12T05:11:44.951Z,16.52
2022-10-12T05:14:12.207Z,16.38
2022-10-12T05:16:39.212Z,19.95
2022-10-12T05:19:07.526Z,15.80
2022-10-12T05:21:35.013Z,14.38
2022-10-12T05:24:02.083Z,15.90
2022-10-12T05:26:29.172Z,17.48
2022-10-12T05:28:56.208Z,22.73
2022-10-12T05:31:23.248Z,24.90
2022-10-12T05:33:50.651Z,19.42
2022-10-12T05:36:18.021Z,19.40
2022-10-12T05:38:45.245Z,16.92
2022-10-12T05:41:31.942Z,19.80
2022-10-12T05:44:22.684Z,18.83
2022-10-12T05:49:57.054Z,21.83
2022-10-12T05:52:37.841Z,15.45
2022-10-12T05:55:13.566Z,19.92
2022-10-12T05:57:55.197Z,22.10
2022-10-12T06:00:25.653Z,14.90
2022-10-12T06:03:19.018Z,17.75
2022-10-12T06:05:48.482Z,17.55
2022-10-12T06:08:16.195Z,21.88
2022-10-12T06:10:49.571Z,15.57
2022-10-12T06:13:17.971Z,15.02
2022-10-12T06:15:46.331Z,21.60
2022-10-12T06:18:14.207Z,18.90
2022-10-12T06:20:41.343Z,17.85
2022-10-12T06:23:08.205Z,19.92
2022-10-12T06:25:35.136Z,20.80
2022-10-12T06:28:02.005Z,23.73
2022-10-12T06:30:28.857Z,23.45
2022-10-12T06:32:56.095Z,22.98
2022-10-12T06:35:23.465Z,19.90
2022-10-12T06:37:51.540Z,20.38
2022-10-12T06:40:20.018Z,18.27
2022-10-12T06:42:48.969Z,18.10
2022-10-12T06:45:17.730Z,17.13
2022-10-12T06:47:45.338Z,16.15
2022-10-12T06:50:13.621Z,23.58
2022-10-12T06:52:40.921Z,24.83
2022-10-12T06:55:08.502Z,15.07
2022-10-12T06:57:37.358Z,22.48
2022-10-12T07:00:06.995Z,19.85
2022-10-12T07:02:35.281Z,19.08
2022-10-12T07:05:03.004Z,15.05
2022-10-12T07:07:31.771Z,22.85
2022-10-12T07:09:58.819Z,20.40
2022-10-12T07:12:25.815Z,26.15
2022-10-12T07:14:54.797Z,21.77
2022-10-12T07:17:22.430Z,24.27
2022-10-12T07:19:49.910Z,19.27
2022-10-12T07:22:17.015Z,24.30
2022-10-12T07:24:43.931Z,19.30
2022-10-12T07:27:11.666Z,20.48
2022-10-12T07:29:40.623Z,14.73
2022-10-12T07:32:07.784Z,19.08
2022-10-12T07:34:35.267Z,23.77
2022-10-12T07:37:02.216Z,28.15
2022-10-12T07:39:29.588Z,24.77
2022-10-12T07:41:57.286Z,17.92
2022-10-12T07:44:25.717Z,19.83
2022-10-12T07:46:52.757Z,21.92
2022-10-12T07:49:19.989Z,12.27
2022-10-12T07:51:47.534Z,15.15
2022-10-12T07:54:19.844Z,18.77
2022-10-12T07:56:48.327Z,22.65
2022-10-12T07:59:16.148Z,15.00
2022-10-12T08:01:43.206Z,16.80
2022-10-12T08:04:10.784Z,13.13
2022-10-12T08:06:37.847Z,16.45
2022-10-12T08:09:06.634Z,13.73
2022-10-12T08:11:38.353Z,13.68
2022-10-12T08:14:05.361Z,15.65
2022-10-12T08:16:32.232Z,12.70
2022-10-12T08:19:00.427Z,14.70
2022-10-12T08:21:27.434Z,17.42
2022-10-12T08:23:54.441Z,14.23
2022-10-12T08:26:21.714Z,12.77
2022-10-12T08:28:49.026Z,14.88
2022-10-12T08:31:17.700Z,18.23
2022-10-12T08:33:45.129Z,13.63
2022-10-12T08:36:13.168Z,13.93
2022-10-12T08:38:40.346Z,20.15
2022-10-12T08:41:29.020Z,12.82
2022-10-12T08:44:10.755Z,20.45
2022-10-12T08:46:39.151Z,14.05
2022-10-12T08:49:20.059Z,17.10
2022-10-12T08:51:53.704Z,17.67
2022-10-12T08:54:24.426Z,13.23
2022-10-12T08:56:54.432Z,17.63
2022-10-12T08:59:21.834Z,18.80
2022-10-12T09:02:26.606Z,15.85
2022-10-12T09:05:33.666Z,15.40
2022-10-12T09:08:11.654Z,15.15
2022-10-12T09:10:47.354Z,19.15
2022-10-12T09:13:25.248Z,18.13
2022-10-12T09:15:57.564Z,15.85
2022-10-12T09:20:57.298Z,17.63
2022-10-12T09:23:32.342Z,17.27
2022-10-12T09:26:17.846Z,18.15
2022-10-12T09:28:58.498Z,11.25
2022-10-12T09:31:31.592Z,12.85
2022-10-12T09:34:05.178Z,14.93
2022-10-12T09:36:35.497Z,13.32
2022-10-12T09:39:06.232Z,11.02
2022-10-12T09:41:40.853Z,12.20
2022-10-12T09:44:12.001Z,12.95
2022-10-12T09:46:58.923Z,13.52
2022-10-12T09:49:41.171Z,14.00
2022-10-12T09:52:08.993Z,14.27
2022-10-12T09:54:39.665Z,17.98
2022-10-12T09:57:07.487Z,14.25
2022-10-12T09:59:43.399Z,21.38
2022-10-12T10:02:18.983Z,11.82
2022-10-12T10:04:49.491Z,16.40
2022-10-12T10:07:29.764Z,12.30
2022-10-12T10:10:10.281Z,8.80
2022-10-12T10:13:01.564Z,13.77
2022-10-12T10:15:35.609Z,9.65
2022-10-12T10:18:17.876Z,11.15
2022-10-12T10:23:43.345Z,12.70
2022-10-12T10:26:14.179Z,9.70
2022-10-12T10:28:56.470Z,14.85
2022-10-12T10:31:29.289Z,15.10
2022-10-12T10:34:08.567Z,13.60
2022-10-12T10:36:41.169Z,12.63
2022-10-12T10:39:21.832Z,9.23
2022-10-12T10:41:49.932Z,12.90
2022-10-12T10:44:29.729Z,11.50
2022-10-12T10:47:01.282Z,14.82
2022-10-12T10:49:43.290Z,13.25
2022-10-12T10:52:29.341Z,9.27
2022-10-12T10:55:18.987Z,9.48
2022-10-12T10:58:14.555Z,14.13
2022-10-12T11:00:43.743Z,12.10
2022-10-12T11:03:39.605Z,11.15
2022-10-12T11:06:17.896Z,14.32
2022-10-12T11:08:47.148Z,5.93
2022-10-12T11:11:18.824Z,6.53
2022-10-12T11:14:01.267Z,10.05
2022-10-12T11:25:55.364Z,7.93
2022-10-12T11:28:30.211Z,7.13
2022-10-12T11:31:02.659Z,10.70
2022-10-12T11:33:39.435Z,6.25
2022-10-12T11:36:10.488Z,7.70
2022-10-12T11:38:46.096Z,8.02
2022-10-12T11:42:16.940Z,10.20
2022-10-12T11:44:47.856Z,10.45
2022-10-12T11:47:38.686Z,5.82
2022-10-12T11:50:26.473Z,9.40
2022-10-12T11:52:55.493Z,8.57
2022-10-12T11:55:56.215Z,8.55
2022-10-12T11:58:55.910Z,6.75
2022-10-12T12:01:29.604Z,8.60
2022-10-12T12:04:40.451Z,7.22
2022-10-12T12:07:44.814Z,8.77
2022-10-12T12:10:34.869Z,10.82
2022-10-12T12:13:13.111Z,11.75
2022-10-12T12:16:04.350Z,7.88
2022-10-12T12:18:34.217Z,10.15
2022-10-12T12:21:09.598Z,7.47
2022-10-12T12:23:57.235Z,6.60
2022-10-12T12:26:28.779Z,10.60
2022-10-12T12:29:19.900Z,8.38
2022-10-12T12:31:56.368Z,6.38
2022-10-12T12:34:23.687Z,7.25
2022-10-12T12:36:52.220Z,4.78
2022-10-12T12:39:28.188Z,6.15
2022-10-12T12:42:02.011Z,5.93
2022-10-12T12:44:38.394Z,10.90
2022-10-12T12:47:26.012Z,6.70
2022-10-12T12:50:02.015Z,6.40
2022-10-12T12:52:39.934Z,6.03
2022-10-12T12:55:48.249Z,4.75
2022-10-12T12:58:27.221Z,10.93
2022-10-12T13:01:16.282Z,6.00
2022-10-12T13:04:14.364Z,11.80
2022-10-12T13:06:53.395Z,10.50
2022-10-12T13:09:39.691Z,12.05
2022-10-12T13:12:36.730Z,8.27
2022-10-12T13:15:23.650Z,7.20
2022-10-12T13:18:46.578Z,21.00
2022-10-12T13:21:20.356Z,9.30
2022-10-12T13:23:50.701Z,8.55
2022-10-12T13:26:27.281Z,9.45
2022-10-12T13:29:02.084Z,8.20
2022-10-12T13:31:46.605Z,10.55
2022-10-12T13:34:24.253Z,12.93
2022-10-12T13:37:09.969Z,10.10
2022-10-12T13:39:43.365Z,16.10
2022-10-12T13:42:24.251Z,13.00
2022-10-12T13:44:51.660Z,9.73
2022-10-12T13:47:23.201Z,9.65
2022-10-12T13:49:50.535Z,13.82
2022-10-12T13:52:32.083Z,9.23
2022-10-12T13:55:01.177Z,9.05
2022-10-12T13:57:39.280Z,12.52
2022-10-12T14:00:16.370Z,11.23
2022-10-12T14:02:56.540Z,6.25
2022-10-12T14:05:25.945Z,10.70
2022-10-12T14:07:56.261Z,12.98
2022-10-12T14:10:31.255Z,8.85
2022-10-12T14:12:59.324Z,9.60
2022-10-12T14:15:39.489Z,7.10
2022-10-12T14:18:34.902Z,9.63
2022-10-12T14:21:16.606Z,11.35
2022-10-12T14:23:49.003Z,10.02
2022-10-12T14:26:32.517Z,12.20
2022-10-12T14:29:00.595Z,7.70
2022-10-12T14:31:53.168Z,7.85
2022-10-12T14:34:30.516Z,8.73
2022-10-12T14:37:02.690Z,9.80
2022-10-12T14:39:30.959Z,11.40
2022-10-12T14:42:03.679Z,12.38
2022-10-12T14:44:42.694Z,13.45
2022-10-12T14:47:23.178Z,13.70
2022-10-12T14:49:52.474Z,9.95
2022-10-12T14:52:45.676Z,11.52
2022-10-12T14:55:24.249Z,15.93
2022-10-12T14:57:54.488Z,9.57
2022-10-12T15:00:27.149Z,11.88
2022-10-12T15:02:57.667Z,10.20
2022-10-12T15:05:29.536Z,10.20
2022-10-12T15:07:56.608Z,8.90
2022-10-12T15:10:24.865Z,11.95
2022-10-12T15:12:52.779Z,7.63
2022-10-12T15:15:42.721Z,8.75
2022-10-12T15:18:10.155Z,7.72
2022-10-12T15:20:38.302Z,9.02
2022-10-12T15:23:05.608Z,8.57
2022-10-12T15:25:35.488Z,6.30
2022-10-12T15:28:03.925Z,7.65
2022-10-12T15:30:31.775Z,8.07
2022-10-12T15:32:58.611Z,10.10
2022-10-12T15:35:28.232Z,10.82
2022-10-12T15:37:58.284Z,5.95
2022-10-12T15:40:28.654Z,7.15
2022-10-12T15:42:55.956Z,14.68
2022-10-12T15:45:26.454Z,8.93
2022-10-12T15:47:54.772Z,10.27
2022-10-12T15:50:25.429Z,11.27
2022-10-12T15:52:53.757Z,8.80
2022-10-12T15:55:29.446Z,5.93
2022-10-12T15:57:57.278Z,8.57
2022-10-12T16:00:26.850Z,11.88
2022-10-12T16:02:56.658Z,8.85
2022-10-12T16:05:30.462Z,6.93
2022-10-12T16:07:58.308Z,8.52
2022-10-12T16:10:37.143Z,12.98
2022-10-12T16:13:08.888Z,13.77
2022-10-12T16:15:36.554Z,8.65
2022-10-12T16:18:06.038Z,8.65
2022-10-12T16:20:39.949Z,12.65
2022-10-12T16:23:12.927Z,11.05
2022-10-12T16:25:44.094Z,9.35
2022-10-12T16:28:12.996Z,10.48
2022-10-12T16:30:41.779Z,9.05
2022-10-12T16:33:09.926Z,14.45
2022-10-12T16:35:40.548Z,7.57
2022-10-12T16:38:09.588Z,7.68
2022-10-12T16:40:39.643Z,10.02
2022-10-12T16:43:06.904Z,10.30
2022-10-12T16:45:33.897Z,10.85
2022-10-12T16:48:01.168Z,10.73
2022-10-12T16:50:28.357Z,8.65
2022-10-12T16:52:55.572Z,9.52
2022-10-12T16:55:24.167Z,11.52
2022-10-12T16:57:51.304Z,9.95
2022-10-12T17:00:19.768Z,8.02
2022-10-12T17:02:47.841Z,12.07
2022-10-12T17:05:14.883Z,14.32
2022-10-12T17:07:42.986Z,14.95
2022-10-12T17:10:10.301Z,27.45
2022-10-12T17:12:37.489Z,19.40
2022-10-12T17:15:05.609Z,21.25
2022-10-12T17:17:32.558Z,16.60
2022-10-12T17:19:59.751Z,18.48
2022-10-12T17:22:26.851Z,16.38
2022-10-12T17:24:53.997Z,13.95
2022-10-12T17:27:20.956Z,14.73
2022-10-12T17:29:48.506Z,17.10
2022-10-12T17:32:16.876Z,13.95
2022-10-12T17:34:46.095Z,12.38
2022-10-12T17:37:14.291Z,22.90
2022-10-12T17:39:44.831Z,18.40
2022-10-12T17:42:12.384Z,11.32
2022-10-12T17:44:45.129Z,13.45
2022-10-12T17:47:12.238Z,13.68
2022-10-12T17:49:41.923Z,14.73
2022-10-12T17:52:09.753Z,15.80
2022-10-12T17:54:36.945Z,11.80
2022-10-12T17:57:04.876Z,12.23
2022-10-12T17:59:37.608Z,13.25
2022-10-12T18:02:09.200Z,16.15
2022-10-12T18:04:36.793Z,20.10
2022-10-12T18:07:05.613Z,13.20
2022-10-12T18:09:35.447Z,13.45
2022-10-12T18:12:02.666Z,17.60
2022-10-12T18:14:29.880Z,12.10
2022-10-12T18:16:58.770Z,12.00
2022-10-12T18:19:25.852Z,14.55
2022-10-12T18:21:55.565Z,14.52
2022-10-12T18:24:25.358Z,12.07
2022-10-12T18:26:55.117Z,15.85
2022-10-12T18:29:22.199Z,14.38
2022-10-12T18:31:49.278Z,13.75
2022-10-12T18:34:16.441Z,10.93
2022-10-12T18:36:45.782Z,12.48
2022-10-12T18:39:13.075Z,15.18
2022-10-12T18:41:40.186Z,14.10
2022-10-12T18:44:07.712Z,12.48
2022-10-12T18:46:36.858Z,10.70
2022-10-12T18:49:10.495Z,14.65
2022-10-12T18:51:40.591Z,19.80
2022-10-12T18:54:08.184Z,21.17
2022-10-12T18:56:36.832Z,23.52
2022-10-12T18:59:04.499Z,20.20
2022-10-12T19:01:31.982Z,20.52
2022-10-12T19:04:03.490Z,21.20
2022-10-12T19:06:35.005Z,19.77
2022-10-12T19:09:02.413Z,20.02
2022-10-12T19:11:31.043Z,19.45
2022-10-12T19:14:04.032Z,18.50
2022-10-12T19:16:34.984Z,15.82
2022-10-12T19:19:05.288Z,22.92
2022-10-12T19:21:34.708Z,19.97
2022-10-12T19:24:06.006Z,19.35
2022-10-12T19:26:33.850Z,15.05
2022-10-12T19:29:03.363Z,18.25
2022-10-12T19:31:36.042Z,19.35
2022-10-12T19:34:08.051Z,16.50
2022-10-12T19:36:38.628Z,18.75
2022-10-12T19:39:08.666Z,16.20
2022-10-12T19:41:36.967Z,12.80
2022-10-12T19:44:04.614Z,20.80
2022-10-12T19:46:31.866Z,16.73
2022-10-12T19:49:03.659Z,18.60
2022-10-12T19:51:33.462Z,13.77
2022-10-12T19:54:04.180Z,20.45
2022-10-12T19:56:31.690Z,16.95
2022-10-12T19:59:01.779Z,15.20
2022-10-12T20:01:34.949Z,13.95
2022-10-12T20:04:06.688Z,18.20
2022-10-12T20:06:33.899Z,16.23
2022-10-12T20:09:04.761Z,14.43
2022-10-12T20:11:32.619Z,14.05
2022-10-12T20:14:00.902Z,17.40
2022-10-12T20:16:31.182Z,22.15
2022-10-12T20:19:02.165Z,15.52
2022-10-12T20:21:29.338Z,18.50
2022-10-12T20:23:56.491Z,17.02
2022-10-12T20:26:25.456Z,15.20
2022-10-12T20:28:58.683Z,17.25
2022-10-12T20:31:27.704Z,17.85
2022-10-12T20:33:56.167Z,17.65
2022-10-12T20:36:30.097Z,17.77
2022-10-12T20:38:58.622Z,16.08
2022-10-12T20:41:27.691Z,17.35
2022-10-12T20:43:56.468Z,16.88
2022-10-12T20:46:24.307Z,14.98
2022-10-12T20:48:55.900Z,16.20
2022-10-12T20:51:28.942Z,17.33
2022-10-12T20:53:59.180Z,18.02
2022-10-12T20:56:27.501Z,20.00
2022-10-12T20:58:57.634Z,16.88
2022-10-12T21:01:26.267Z,15.57
2022-10-12T21:03:54.130Z,18.50
2022-10-12T21:06:23.548Z,17.23
2022-10-12T21:08:52.508Z,18.13
2022-10-12T21:11:20.907Z,17.92
2022-10-12T21:13:48.337Z,13.95
2022-10-12T21:16:15.849Z,16.15
2022-10-12T21:18:44.907Z,13.73
2022-10-12T21:21:18.630Z,12.23
2022-10-12T21:23:55.530Z,16.63
2022-10-12T21:26:25.120Z,19.27
2022-10-12T21:28:52.590Z,13.60
2022-10-12T21:31:22.743Z,13.48
2022-10-12T21:33:50.428Z,17.15
2022-10-12T21:36:23.324Z,16.30
2022-10-12T21:38:50.825Z,14.73
2022-10-12T21:41:20.434Z,11.52
2022-10-12T21:43:51.792Z,12.82
2022-10-12T21:46:30.021Z,16.92
2022-10-12T21:48:57.588Z,17.27
2022-10-12T21:51:26.809Z,13.90
2022-10-12T21:53:54.194Z,19.67
2022-10-12T21:56:26.783Z,23.75
2022-10-12T21:58:57.358Z,13.60
2022-10-12T22:01:27.471Z,14.30
2022-10-12T22:03:57.570Z,11.45
2022-10-12T22:06:26.604Z,16.05
2022-10-12T22:09:06.351Z,12.30
2022-10-12T22:11:35.128Z,16.30
2022-10-12T22:14:05.361Z,15.80
2022-10-12T22:16:37.549Z,14.43
2022-10-12T22:19:14.442Z,14.27
2022-10-12T22:21:44.702Z,13.65
2022-10-12T22:24:11.852Z,13.68
2022-10-12T22:26:41.464Z,15.13
2022-10-12T22:31:40.589Z,11.75
2022-10-12T22:34:08.347Z,14.77
2022-10-12T22:36:37.267Z,8.80
2022-10-12T22:39:05.810Z,12.80
2022-10-12T22:41:32.763Z,10.05
2022-10-12T22:43:59.694Z,12.98
2022-10-12T22:46:27.070Z,10.02
2022-10-12T22:48:54.875Z,12.32
2022-10-12T22:51:33.169Z,13.82
2022-10-12T22:54:03.691Z,9.95
2022-10-12T22:56:31.156Z,11.65
2022-10-12T22:59:07.053Z,13.48
2022-10-12T23:01:35.816Z,16.48
2022-10-12T23:04:03.163Z,13.80
2022-10-12T23:06:30.407Z,8.73
2022-10-12T23:08:58.063Z,15.30
2022-10-12T23:11:27.444Z,15.15
2022-10-12T23:13:58.542Z,17.23
2022-10-12T23:16:28.491Z,8.97
2022-10-12T23:18:59.479Z,13.70
2022-10-12T23:21:28.397Z,14.82
2022-10-12T23:23:56.025Z,10.25
2022-10-12T23:26:30.815Z,10.32
2022-10-12T23:28:57.884Z,13.38
2022-10-12T23:31:27.806Z,12.55
2022-10-12T23:34:02.417Z,23.90
2022-10-12T23:36:29.876Z,11.50
2022-10-12T23:38:59.173Z,16.15
2022-10-12T23:41:28.904Z,19.17
2022-10-12T23:43:58.889Z,11.25
2022-10-12T23:46:26.135Z,13.20
2022-10-12T23:48:55.424Z,10.38
2022-10-12T23:51:22.593Z,11.82
2022-10-12T23:53:49.939Z,12.02
2022-10-12T23:56:16.817Z,16.98
2022-10-12T23:58:46.682Z,16.02
